createdAt,value
2019-02-09T00:35:52.722Z,9.30
2019-02-09T00:40:31.138Z,1.83
2019-02-09T00:42:59.458Z,2.30
2019-02-09T00:45:28.101Z,2.40
2019-02-09T00:47:56.701Z,2.20
2019-02-09T00:50:25.424Z,2.30
2019-02-09T00:52:54.035Z,2.35
2019-02-09T00:55:24.350Z,3.77
2019-02-09T00:57:52.861Z,3.20
2019-02-09T01:00:22.603Z,3.00
2019-02-09T01:02:51.321Z,2.60
2019-02-09T01:05:30.164Z,3.22
2019-02-09T01:07:58.777Z,3.10
2019-02-09T01:10:28.457Z,3.80
2019-02-09T01:12:57.013Z,3.85
2019-02-09T01:15:25.634Z,3.60
2019-02-09T01:17:54.239Z,3.20
2019-02-09T01:20:23.854Z,3.40
2019-02-09T01:22:52.617Z,3.30
2019-02-09T01:25:21.377Z,3.35
2019-02-09T01:27:49.995Z,3.25
2019-02-09T01:30:20.051Z,3.60
2019-02-09T01:32:48.859Z,2.95
2019-02-09T01:35:17.462Z,3.70
2019-02-09T01:37:46.125Z,12.10
2019-02-09T01:40:16.201Z,2.58
2019-02-09T01:42:44.746Z,4.35
2019-02-09T01:45:14.725Z,4.90
2019-02-09T01:47:43.319Z,4.25
2019-02-09T01:50:13.624Z,4.50
2019-02-09T01:52:42.094Z,3.75
2019-02-09T01:55:11.380Z,3.20
2019-02-09T01:57:39.966Z,3.35
2019-02-09T02:00:17.127Z,2.87
2019-02-09T02:02:45.705Z,3.67
2019-02-09T02:05:15.605Z,2.60
2019-02-09T02:07:44.111Z,3.10
2019-02-09T02:10:16.326Z,3.33
2019-02-09T02:12:44.769Z,3.25
2019-02-09T02:15:14.507Z,2.75
2019-02-09T02:17:43.091Z,3.30
2019-02-09T02:20:15.909Z,3.50
2019-02-09T02:22:44.359Z,3.42
2019-02-09T02:25:13.169Z,2.92
2019-02-09T02:27:41.708Z,3.30
2019-02-09T02:30:21.937Z,3.30
2019-02-09T02:32:44.908Z,2.95
2019-02-09T02:35:13.463Z,3.30
2019-02-09T02:37:42.053Z,3.45
2019-02-09T02:40:11.860Z,4.25
2019-02-09T02:42:40.376Z,3.62
2019-02-09T02:45:10.458Z,3.02
2019-02-09T02:47:38.972Z,3.50
2019-02-09T02:50:09.116Z,2.85
2019-02-09T02:52:37.572Z,4.30
2019-02-09T02:55:07.885Z,4.60
2019-02-09T02:57:36.351Z,3.22
2019-02-09T03:00:09.399Z,3.17
2019-02-09T03:02:37.926Z,4.10
2019-02-09T03:05:07.928Z,3.72
2019-02-09T03:07:36.374Z,4.03
2019-02-09T03:10:06.706Z,3.70
2019-02-09T03:12:35.154Z,3.77
2019-02-09T03:15:05.234Z,3.90
2019-02-09T03:17:33.922Z,11.45
2019-02-09T03:20:02.855Z,5.67
2019-02-09T03:22:31.366Z,6.08
2019-02-09T03:24:59.930Z,8.58
2019-02-09T03:27:28.468Z,12.00
2019-02-09T03:29:56.955Z,8.88
2019-02-09T03:32:25.492Z,13.98
2019-02-09T03:34:54.045Z,7.25
2019-02-09T03:37:22.596Z,11.08
2019-02-09T03:39:51.169Z,59.25
2019-02-09T03:42:22.078Z,19.02
2019-02-09T03:44:50.583Z,13.18
2019-02-09T03:47:19.209Z,29.35
2019-02-09T03:49:47.800Z,39.33
2019-02-09T03:52:16.297Z,26.07
2019-02-09T03:54:44.819Z,25.75
2019-02-09T03:57:13.310Z,6.28
2019-02-09T03:59:41.889Z,7.33
2019-02-09T04:02:10.422Z,5.67
2019-02-09T04:04:38.933Z,4.45
2019-02-09T04:07:07.804Z,4.47
2019-02-09T04:09:36.318Z,4.20
2019-02-09T04:12:04.943Z,3.22
2019-02-09T04:14:33.437Z,3.55
2019-02-09T04:17:01.964Z,3.27
2019-02-09T04:19:30.476Z,3.45
2019-02-09T04:21:59.018Z,3.50
2019-02-09T04:24:27.540Z,4.25
2019-02-09T04:26:56.007Z,3.98
2019-02-09T04:29:24.521Z,3.65
2019-02-09T04:31:53.046Z,2.98
2019-02-09T04:34:21.558Z,2.80
2019-02-09T04:36:50.091Z,3.37
2019-02-09T04:39:18.865Z,3.50
2019-02-09T04:41:47.349Z,3.17
2019-02-09T04:44:16.194Z,3.05
2019-02-09T04:46:44.735Z,2.85
2019-02-09T04:49:13.164Z,3.35
2019-02-09T04:51:41.614Z,2.95
2019-02-09T04:54:10.080Z,3.67
2019-02-09T04:56:38.842Z,2.75
2019-02-09T04:59:07.318Z,3.40
2019-02-09T05:01:35.845Z,3.67
2019-02-09T05:04:04.585Z,3.77
2019-02-09T05:06:33.432Z,3.37
2019-02-09T05:09:01.897Z,3.65
2019-02-09T05:11:30.400Z,3.45
2019-02-09T05:13:58.861Z,3.70
2019-02-09T05:16:27.622Z,4.20
2019-02-09T05:18:56.097Z,3.80
2019-02-09T05:21:24.538Z,4.95
2019-02-09T05:23:53.342Z,4.75
2019-02-09T05:26:24.813Z,4.42
2019-02-09T05:28:53.336Z,4.80
2019-02-09T05:31:23.419Z,4.22
2019-02-09T05:33:52.041Z,4.75
2019-02-09T05:36:20.556Z,3.50
2019-02-09T05:38:49.361Z,3.67
2019-02-09T05:41:18.198Z,3.40
2019-02-09T05:43:46.740Z,3.45
2019-02-09T05:46:15.181Z,2.75
2019-02-09T05:48:43.736Z,2.90
2019-02-09T05:51:12.259Z,2.50
2019-02-09T05:53:40.788Z,2.55
2019-02-09T05:56:09.390Z,3.20
2019-02-09T05:58:37.833Z,2.20
2019-02-09T06:01:06.324Z,2.80
2019-02-09T06:03:34.860Z,2.67
2019-02-09T06:06:03.410Z,4.00
2019-02-09T06:08:31.942Z,3.47
2019-02-09T06:11:00.489Z,3.52
2019-02-09T06:13:29.333Z,3.30
2019-02-09T06:15:58.209Z,3.58
2019-02-09T06:18:26.726Z,3.60
2019-02-09T06:20:55.313Z,3.30
2019-02-09T06:23:23.758Z,3.02
2019-02-09T06:25:52.324Z,3.25
2019-02-09T06:28:20.874Z,3.02
2019-02-09T06:30:49.520Z,2.60
2019-02-09T06:33:18.041Z,2.70
2019-02-09T06:35:46.597Z,2.90
2019-02-09T06:38:15.377Z,2.72
2019-02-09T06:40:43.925Z,2.50
2019-02-09T06:43:12.778Z,3.87
2019-02-09T06:45:41.321Z,2.55
2019-02-09T06:48:17.047Z,3.45
2019-02-09T06:50:45.637Z,3.33
2019-02-09T06:53:14.161Z,2.80
2019-02-09T06:55:43.133Z,2.75
2019-02-09T06:58:11.655Z,3.25
2019-02-09T07:00:40.097Z,2.80
2019-02-09T07:03:08.734Z,2.98
2019-02-09T07:05:37.340Z,2.62
2019-02-09T07:08:06.564Z,2.95
2019-02-09T07:10:35.043Z,2.98
2019-02-09T07:13:04.151Z,3.00
2019-02-09T07:15:33.335Z,2.67
2019-02-09T07:18:01.943Z,2.52
2019-02-09T07:20:30.528Z,2.55
2019-02-09T07:22:59.088Z,2.35
2019-02-09T07:25:27.669Z,2.10
2019-02-09T07:27:56.204Z,2.60
2019-02-09T07:30:25.638Z,2.50
2019-02-09T07:32:54.530Z,2.55
2019-02-09T07:35:23.108Z,3.10
2019-02-09T07:37:51.706Z,2.75
2019-02-09T07:40:21.309Z,2.65
2019-02-09T07:42:49.771Z,2.83
2019-02-09T07:45:21.036Z,2.27
2019-02-09T07:47:49.611Z,2.40
2019-02-09T07:50:19.137Z,2.25
2019-02-09T07:52:47.660Z,2.52
2019-02-09T07:55:17.236Z,2.33
2019-02-09T07:57:45.772Z,2.12
2019-02-09T08:00:28.046Z,2.62
2019-02-09T08:02:56.836Z,2.27
2019-02-09T08:05:26.272Z,2.80
2019-02-09T08:07:54.791Z,2.40
2019-02-09T08:10:27.790Z,1.80
2019-02-09T08:12:56.548Z,2.95
2019-02-09T08:15:26.272Z,2.40
2019-02-09T08:17:54.858Z,2.30
2019-02-09T08:20:24.475Z,2.60
2019-02-09T08:22:54.165Z,2.65
2019-02-09T08:25:23.564Z,2.70
2019-02-09T08:27:52.180Z,2.25
2019-02-09T08:30:22.217Z,2.50
2019-02-09T08:32:50.713Z,2.40
2019-02-09T08:35:19.280Z,2.17
2019-02-09T08:37:48.207Z,3.30
2019-02-09T08:40:17.002Z,2.65
2019-02-09T08:42:45.942Z,2.55
2019-02-09T08:45:18.625Z,2.33
2019-02-09T08:47:47.317Z,3.15
2019-02-09T08:50:17.418Z,1.95
2019-02-09T08:52:45.985Z,2.62
2019-02-09T08:55:14.793Z,2.50
2019-02-09T08:57:43.313Z,2.25
2019-02-09T09:00:17.268Z,2.30
2019-02-09T09:02:45.813Z,2.85
2019-02-09T09:05:14.562Z,2.20
2019-02-09T09:07:43.114Z,2.17
2019-02-09T09:10:13.223Z,1.95
2019-02-09T09:12:41.759Z,2.95
2019-02-09T09:15:11.744Z,2.12
2019-02-09T09:17:40.225Z,2.33
2019-02-09T09:20:16.319Z,2.42
2019-02-09T09:22:44.872Z,3.33
2019-02-09T09:25:13.474Z,1.98
2019-02-09T09:27:42.202Z,1.87
2019-02-09T09:30:12.272Z,2.05
2019-02-09T09:32:40.830Z,2.60
2019-02-09T09:35:10.326Z,2.62
2019-02-09T09:37:39.257Z,2.45
2019-02-09T09:40:09.320Z,2.35
2019-02-09T09:42:37.799Z,2.65
2019-02-09T09:45:09.680Z,2.50
2019-02-09T09:47:38.218Z,2.30
2019-02-09T09:50:08.293Z,2.90
2019-02-09T09:52:36.900Z,2.00
2019-02-09T09:55:06.850Z,2.45
2019-02-09T09:57:35.466Z,2.52
2019-02-09T10:00:05.533Z,2.05
2019-02-09T10:02:36.655Z,2.45
2019-02-09T10:05:05.841Z,2.30
2019-02-09T10:07:34.294Z,2.45
2019-02-09T10:10:03.306Z,2.77
2019-02-09T10:12:32.380Z,2.52
2019-02-09T10:15:00.929Z,2.60
2019-02-09T10:17:29.374Z,3.12
2019-02-09T10:19:57.852Z,2.12
2019-02-09T10:22:26.463Z,2.35
2019-02-09T10:24:55.013Z,2.52
2019-02-09T10:27:23.524Z,2.67
2019-02-09T10:29:52.001Z,2.72
2019-02-09T10:32:20.464Z,2.92
2019-02-09T10:34:49.006Z,2.80
2019-02-09T10:37:17.510Z,3.30
2019-02-09T10:39:46.020Z,2.20
2019-02-09T10:42:14.977Z,2.02
2019-02-09T10:44:43.733Z,2.40
2019-02-09T10:47:12.331Z,2.40
2019-02-09T10:49:40.881Z,2.30
2019-02-09T10:52:09.411Z,2.02
2019-02-09T10:54:38.329Z,2.62
2019-02-09T10:57:06.924Z,2.25
2019-02-09T10:59:35.485Z,2.75
2019-02-09T11:02:04.673Z,2.58
2019-02-09T11:04:33.159Z,2.27
2019-02-09T11:07:01.743Z,2.40
2019-02-09T11:09:30.269Z,3.33
2019-02-09T11:11:59.094Z,2.33
2019-02-09T11:14:27.440Z,2.53
2019-02-09T11:16:55.688Z,3.10
2019-02-09T11:19:23.931Z,4.00
2019-02-09T11:21:52.484Z,3.20
2019-02-09T11:24:21.008Z,2.70
2019-02-09T11:26:49.543Z,3.35
2019-02-09T11:29:18.068Z,3.25
2019-02-09T11:31:46.974Z,3.00
2019-02-09T11:34:15.476Z,1.70
2019-02-09T11:36:44.089Z,3.20
2019-02-09T11:39:12.619Z,2.25
2019-02-09T11:41:41.199Z,3.20
2019-02-09T11:44:09.725Z,2.45
2019-02-09T11:46:38.269Z,2.70
2019-02-09T11:49:06.776Z,3.15
2019-02-09T11:51:35.272Z,2.98
2019-02-09T11:54:04.093Z,2.80
2019-02-09T11:56:33.341Z,2.45
2019-02-09T11:59:02.349Z,2.30
2019-02-09T12:01:30.530Z,2.30
2019-02-09T12:03:58.802Z,2.83
2019-02-09T12:06:27.065Z,2.30
2019-02-09T12:08:55.538Z,2.62
2019-02-09T12:11:24.094Z,2.10
2019-02-09T12:13:55.431Z,3.15
2019-02-09T12:16:22.820Z,2.35
2019-02-09T12:18:51.376Z,2.75
2019-02-09T12:21:19.969Z,2.05
2019-02-09T12:23:48.440Z,2.40
2019-02-09T12:26:16.604Z,2.07
2019-02-09T12:28:45.075Z,2.58
2019-02-09T12:31:13.594Z,3.62
2019-02-09T12:33:42.094Z,1.65
2019-02-09T12:36:10.571Z,2.20
2019-02-09T12:38:39.157Z,1.95
2019-02-09T12:41:07.682Z,2.52
2019-02-09T12:43:35.963Z,2.07
2019-02-09T12:46:04.282Z,2.03
2019-02-09T12:48:32.737Z,2.27
2019-02-09T12:51:01.293Z,1.90
2019-02-09T12:53:29.807Z,2.27
2019-02-09T12:55:58.292Z,2.70
2019-02-09T12:58:26.880Z,2.22
2019-02-09T13:00:55.511Z,3.00
2019-02-09T13:03:31.452Z,2.60
2019-02-09T13:05:56.936Z,1.80
2019-02-09T13:08:25.521Z,2.25
2019-02-09T13:10:54.137Z,2.02
2019-02-09T13:13:22.669Z,2.58
2019-02-09T13:15:51.139Z,1.62
2019-02-09T13:18:19.692Z,2.27
2019-02-09T13:20:47.936Z,1.47
2019-02-09T13:23:16.237Z,2.60
2019-02-09T13:25:44.580Z,2.57
2019-02-09T13:28:12.859Z,2.10
2019-02-09T13:30:41.954Z,2.40
2019-02-09T13:33:11.033Z,2.52
2019-02-09T13:35:40.177Z,2.20
2019-02-09T13:38:08.668Z,2.40
2019-02-09T13:40:37.258Z,2.42
2019-02-09T13:43:05.966Z,2.75
2019-02-09T13:45:35.671Z,2.22
2019-02-09T13:48:04.387Z,2.92
2019-02-09T13:50:33.385Z,2.50
2019-02-09T13:53:01.934Z,2.20
2019-02-09T13:55:30.930Z,3.17
2019-02-09T13:57:59.479Z,2.75
2019-02-09T14:00:28.657Z,2.52
2019-02-09T14:02:57.503Z,2.47
2019-02-09T14:05:25.951Z,2.85
2019-02-09T14:07:54.859Z,2.33
2019-02-09T14:10:24.848Z,2.15
2019-02-09T14:12:53.343Z,2.50
2019-02-09T14:15:29.467Z,2.10
2019-02-09T14:17:58.628Z,2.27
2019-02-09T14:20:27.221Z,3.45
2019-02-09T14:22:55.833Z,2.58
2019-02-09T14:25:24.429Z,3.17
2019-02-09T14:27:54.800Z,2.70
2019-02-09T14:30:24.378Z,3.10
2019-02-09T14:32:52.972Z,3.45
2019-02-09T14:35:22.390Z,3.10
2019-02-09T14:37:51.391Z,3.10
2019-02-09T14:40:21.324Z,3.17
2019-02-09T14:42:49.836Z,2.40
2019-02-09T14:45:19.542Z,2.50
2019-02-09T14:47:48.157Z,3.33
2019-02-09T14:50:17.035Z,3.27
2019-02-09T14:52:45.611Z,3.22
2019-02-09T14:55:19.439Z,2.45
2019-02-09T14:57:48.122Z,2.95
2019-02-09T15:00:18.947Z,2.77
2019-02-09T15:02:53.708Z,2.55
2019-02-09T15:05:17.837Z,3.62
2019-02-09T15:07:46.300Z,3.70
2019-02-09T15:10:15.914Z,3.17
2019-02-09T15:12:44.463Z,3.10
2019-02-09T15:15:23.341Z,3.40
2019-02-09T15:17:51.957Z,2.83
2019-02-09T15:20:22.250Z,3.25
2019-02-09T15:22:50.873Z,4.05
2019-02-09T15:25:19.409Z,3.58
2019-02-09T15:27:47.955Z,3.27
2019-02-09T15:30:20.936Z,2.15
2019-02-09T15:32:49.456Z,2.70
2019-02-09T15:35:18.158Z,2.85
2019-02-09T15:37:46.723Z,2.98
2019-02-09T15:40:16.777Z,3.17
2019-02-09T15:42:45.323Z,3.15
2019-02-09T15:45:15.107Z,2.77
2019-02-09T15:47:43.638Z,2.65
2019-02-09T15:50:14.742Z,3.20
2019-02-09T15:52:43.334Z,4.17
2019-02-09T15:55:19.139Z,3.37
2019-02-09T15:57:47.593Z,3.62
2019-02-09T16:00:20.470Z,3.72
2019-02-09T16:02:49.251Z,2.62
2019-02-09T16:05:19.167Z,3.10
2019-02-09T16:07:47.728Z,4.40
2019-02-09T16:10:17.731Z,3.70
2019-02-09T16:12:46.265Z,4.60
2019-02-09T16:15:16.369Z,3.60
2019-02-09T16:17:44.834Z,2.70
2019-02-09T16:20:17.249Z,2.80
2019-02-09T16:22:45.801Z,3.37
2019-02-09T16:25:14.528Z,3.00
2019-02-09T16:27:43.390Z,3.17
2019-02-09T16:30:18.404Z,2.67
2019-02-09T16:32:44.036Z,2.90
2019-02-09T16:35:13.982Z,3.17
2019-02-09T16:37:42.695Z,3.17
2019-02-09T16:40:12.987Z,3.30
2019-02-09T16:42:41.727Z,3.17
2019-02-09T16:45:18.028Z,4.47
2019-02-09T16:47:46.628Z,3.02
2019-02-09T16:50:16.243Z,2.70
2019-02-09T16:52:44.952Z,3.27
2019-02-09T16:55:17.321Z,2.60
2019-02-09T16:57:46.077Z,3.10
2019-02-09T17:00:16.196Z,2.47
2019-02-09T17:02:44.750Z,3.10
2019-02-09T17:05:13.356Z,2.72
2019-02-09T17:07:41.902Z,1.90
2019-02-09T17:10:12.216Z,3.37
2019-02-09T17:12:40.666Z,2.30
2019-02-09T17:15:10.669Z,2.98
2019-02-09T17:17:39.231Z,3.00
2019-02-09T17:20:09.542Z,4.05
2019-02-09T17:22:37.998Z,3.17
2019-02-09T17:25:09.019Z,3.62
2019-02-09T17:27:37.674Z,4.50
2019-02-09T17:30:07.770Z,3.10
2019-02-09T17:32:37.340Z,3.30
2019-02-09T17:35:27.066Z,3.30
2019-02-09T17:37:55.673Z,2.70
2019-02-09T17:40:31.241Z,2.65
2019-02-09T17:42:59.712Z,3.05
2019-02-09T17:45:29.772Z,3.33
2019-02-09T17:47:58.274Z,3.08
2019-02-09T17:50:26.886Z,3.25
2019-02-09T17:52:55.471Z,2.65
2019-02-09T17:55:24.004Z,3.30
2019-02-09T17:57:52.632Z,4.50
2019-02-09T18:00:27.419Z,2.77
2019-02-09T18:02:55.944Z,3.33
2019-02-09T18:05:24.477Z,2.98
2019-02-09T18:07:52.952Z,3.45
2019-02-09T18:10:21.485Z,3.60
2019-02-09T18:12:50.006Z,3.17
2019-02-09T18:15:19.233Z,2.72
2019-02-09T18:17:47.708Z,4.08
2019-02-09T18:20:16.652Z,3.50
2019-02-09T18:22:45.368Z,3.17
2019-02-09T18:25:18.140Z,3.92
2019-02-09T18:27:46.725Z,4.53
2019-02-09T18:30:16.576Z,3.87
2019-02-09T18:32:45.189Z,3.40
2019-02-09T18:35:14.098Z,3.40
2019-02-09T18:37:42.615Z,3.15
2019-02-09T18:40:12.877Z,4.78
2019-02-09T18:42:41.393Z,3.80
2019-02-09T18:45:11.727Z,3.50
2019-02-09T18:47:40.293Z,2.85
2019-02-09T18:50:10.315Z,3.27
2019-02-09T18:52:38.762Z,2.87
2019-02-09T18:55:08.777Z,3.05
2019-02-09T18:57:37.439Z,4.65
2019-02-09T19:00:07.563Z,3.55
2019-02-09T19:02:38.587Z,3.58
2019-02-09T19:05:08.019Z,3.95
2019-02-09T19:07:37.336Z,4.95
2019-02-09T19:10:07.364Z,4.25
2019-02-09T19:12:35.893Z,2.72
2019-02-09T19:15:06.038Z,3.45
2019-02-09T19:17:34.618Z,4.90
2019-02-09T19:20:03.587Z,2.60
2019-02-09T19:22:32.137Z,4.17
2019-02-09T19:25:00.657Z,4.45
2019-02-09T19:27:29.278Z,3.95
2019-02-09T19:29:57.819Z,2.85
2019-02-09T19:32:26.369Z,2.92
2019-02-09T19:34:54.895Z,2.80
2019-02-09T19:37:23.374Z,4.30
2019-02-09T19:39:53.095Z,3.72
2019-02-09T19:42:21.654Z,4.35
2019-02-09T19:44:50.235Z,2.87
2019-02-09T19:47:18.821Z,3.08
2019-02-09T19:49:47.347Z,3.70
2019-02-09T19:52:15.872Z,2.90
2019-02-09T19:54:44.385Z,2.50
2019-02-09T19:57:12.952Z,3.33
2019-02-09T19:59:41.496Z,3.52
2019-02-09T20:02:12.442Z,3.50
2019-02-09T20:04:41.012Z,3.65
2019-02-09T20:07:11.530Z,4.22
2019-02-09T20:09:39.977Z,3.35
2019-02-09T20:12:08.504Z,3.85
2019-02-09T20:14:37.070Z,3.45
2019-02-09T20:17:05.656Z,3.50
2019-02-09T20:19:34.272Z,3.37
2019-02-09T20:22:02.966Z,2.75
2019-02-09T20:24:31.537Z,3.52
2019-02-09T20:27:00.048Z,3.00
2019-02-09T20:29:28.607Z,3.85
2019-02-09T20:31:57.135Z,3.08
2019-02-09T20:34:25.843Z,2.80
2019-02-09T20:36:54.341Z,4.50
2019-02-09T20:39:22.881Z,3.60
2019-02-09T20:41:51.413Z,3.87
2019-02-09T20:44:19.986Z,3.98
2019-02-09T20:46:48.513Z,3.80
2019-02-09T20:49:17.051Z,4.15
2019-02-09T20:51:45.573Z,3.70
2019-02-09T20:54:14.561Z,3.67
2019-02-09T20:56:43.079Z,3.60
2019-02-09T20:59:11.695Z,3.75
2019-02-09T21:01:40.208Z,3.70
2019-02-09T21:04:08.801Z,3.67
2019-02-09T21:06:37.311Z,3.20
2019-02-09T21:09:06.802Z,4.33
2019-02-09T21:11:35.427Z,3.40
2019-02-09T21:14:04.011Z,5.30
2019-02-09T21:16:32.490Z,4.00
2019-02-09T21:19:01.033Z,3.10
2019-02-09T21:21:29.589Z,3.20
2019-02-09T21:23:58.443Z,4.03
2019-02-09T21:26:26.985Z,4.00
2019-02-09T21:28:55.422Z,3.50
2019-02-09T21:31:23.938Z,3.35
2019-02-09T21:33:52.493Z,2.83
2019-02-09T21:36:21.382Z,2.80
2019-02-09T21:38:49.963Z,3.20
2019-02-09T21:41:18.492Z,3.65
2019-02-09T21:43:47.014Z,2.65
2019-02-09T21:46:15.585Z,3.17
2019-02-09T21:48:44.099Z,2.90
2019-02-09T21:51:12.603Z,4.08
2019-02-09T21:53:41.113Z,2.47
2019-02-09T21:56:09.675Z,3.45
2019-02-09T21:58:38.202Z,3.25
2019-02-09T22:01:06.844Z,3.02
2019-02-09T22:03:35.386Z,3.45
2019-02-09T22:06:03.965Z,4.25
2019-02-09T22:08:32.523Z,3.45
2019-02-09T22:11:01.052Z,3.40
2019-02-09T22:13:29.601Z,2.98
2019-02-09T22:15:58.119Z,3.60
2019-02-09T22:18:26.750Z,3.00
2019-02-09T22:20:55.332Z,2.45
2019-02-09T22:23:23.876Z,3.15
2019-02-09T22:25:52.419Z,3.22
2019-02-09T22:28:20.944Z,2.80
2019-02-09T22:30:49.590Z,2.83
2019-02-09T22:33:24.472Z,3.55
2019-02-09T22:35:48.875Z,3.25
2019-02-09T22:38:17.483Z,2.83
2019-02-09T22:40:46.011Z,3.67
2019-02-09T22:43:14.565Z,3.60
2019-02-09T22:45:43.249Z,2.77
2019-02-09T22:48:11.883Z,3.10
2019-02-09T22:50:41.677Z,2.70
2019-02-09T22:53:10.305Z,4.45
2019-02-09T22:55:38.980Z,3.45
2019-02-09T22:58:07.574Z,3.58
2019-02-09T23:00:47.891Z,3.90
2019-02-09T23:03:16.560Z,3.50
2019-02-09T23:06:07.973Z,3.60
2019-02-09T23:08:34.058Z,3.67
2019-02-09T23:11:02.539Z,4.17
2019-02-09T23:13:31.125Z,3.83
2019-02-09T23:15:59.705Z,4.90
2019-02-09T23:18:28.238Z,4.47
2019-02-09T23:20:57.118Z,2.83
2019-02-09T23:23:25.641Z,4.12
2019-02-09T23:25:55.038Z,3.00
2019-02-09T23:28:23.629Z,3.67
2019-02-09T23:30:52.177Z,4.60
2019-02-09T23:33:20.654Z,3.75
2019-02-09T23:35:49.685Z,4.10
2019-02-09T23:38:18.125Z,4.42
2019-02-09T23:40:46.622Z,5.03
2019-02-09T23:43:15.149Z,4.17
2019-02-09T23:45:43.706Z,4.55
2019-02-09T23:48:13.273Z,3.67
2019-02-09T23:50:41.786Z,3.92
2019-02-09T23:53:10.325Z,3.87
2019-02-09T23:55:38.855Z,3.75
2019-02-09T23:58:07.410Z,3.65
